createdAt,value
2022-11-23T00:01:21.498Z,4.40
2022-11-23T00:06:27.629Z,4.49
2022-11-23T00:11:35.879Z,4.65
2022-11-23T00:16:41.439Z,4.65
2022-11-23T00:21:46.916Z,4.64
2022-11-23T00:26:52.316Z,4.67
2022-11-23T00:31:57.764Z,4.58
2022-11-23T00:37:03.215Z,4.55
2022-11-23T00:42:08.836Z,4.56
2022-11-23T00:47:14.302Z,4.60
2022-11-23T00:52:19.891Z,4.61
2022-11-23T00:57:25.320Z,4.59
2022-11-23T01:02:31.761Z,4.64
2022-11-23T01:07:37.961Z,4.61
2022-11-23T01:12:43.365Z,4.61
2022-11-23T01:17:48.757Z,4.55
2022-11-23T01:22:54.310Z,4.56
2022-11-23T01:27:59.717Z,4.51
2022-11-23T01:33:05.836Z,4.55
2022-11-23T01:38:16.659Z,4.58
2022-11-23T01:43:20.288Z,4.62
2022-11-23T01:48:31.338Z,4.63
2022-11-23T01:53:39.327Z,4.67
2022-11-23T01:58:48.033Z,4.71
2022-11-23T02:03:55.192Z,4.78
2022-11-23T02:09:01.019Z,4.83
2022-11-23T02:14:06.611Z,4.96
2022-11-23T02:19:39.337Z,4.96
2022-11-23T02:24:47.850Z,4.96
2022-11-23T02:29:55.337Z,4.95
2022-11-23T02:35:00.797Z,4.90
2022-11-23T02:40:09.346Z,4.94
2022-11-23T02:45:37.462Z,5.05
2022-11-23T02:50:43.689Z,5.05
2022-11-23T02:55:49.139Z,4.94
2022-11-23T03:00:55.548Z,4.96
2022-11-23T03:06:00.964Z,5.03
2022-11-23T03:11:06.757Z,4.99
2022-11-23T03:16:13.025Z,4.97
2022-11-23T03:21:19.227Z,4.97
2022-11-23T03:26:25.345Z,5.02
2022-11-23T03:31:32.488Z,5.04
2022-11-23T03:36:38.445Z,5.09
2022-11-23T03:41:43.833Z,5.20
2022-11-23T03:46:50.724Z,5.20
2022-11-23T03:51:56.186Z,5.17
2022-11-23T03:57:01.742Z,5.21
2022-11-23T04:02:08.238Z,5.26
2022-11-23T04:07:15.457Z,5.24
2022-11-23T04:12:22.814Z,5.13
2022-11-23T04:17:28.271Z,5.21
2022-11-23T04:22:34.366Z,5.21
2022-11-23T04:27:40.132Z,5.19
2022-11-23T04:32:47.208Z,5.14
2022-11-23T04:37:52.856Z,5.05
2022-11-23T04:43:01.753Z,5.01
2022-11-23T04:48:09.328Z,5.11
2022-11-23T04:53:15.620Z,5.06
2022-11-23T04:58:22.721Z,5.17
2022-11-23T05:03:31.167Z,5.15
2022-11-23T05:08:39.085Z,5.10
2022-11-23T05:13:52.829Z,5.09
2022-11-23T05:18:59.722Z,5.05
2022-11-23T05:24:06.205Z,5.01
2022-11-23T05:29:11.925Z,4.92
2022-11-23T05:34:17.560Z,4.94
2022-11-23T05:39:23.826Z,5.01
2022-11-23T05:44:30.386Z,5.01
2022-11-23T05:49:36.516Z,4.91
2022-11-23T05:54:42.478Z,5.00
2022-11-23T05:59:50.065Z,4.93
2022-11-23T06:04:57.135Z,4.87
2022-11-23T06:10:06.037Z,4.82
2022-11-23T06:15:13.032Z,4.84
2022-11-23T06:20:18.863Z,4.87
2022-11-23T06:25:26.074Z,4.84
2022-11-23T06:30:38.942Z,4.87
2022-11-23T06:35:46.514Z,4.87
2022-11-23T06:40:52.343Z,4.85
2022-11-23T06:45:58.555Z,4.85
2022-11-23T06:51:06.069Z,4.76
2022-11-23T06:56:13.163Z,4.76
2022-11-23T07:01:18.775Z,4.75
2022-11-23T07:06:25.962Z,4.73
2022-11-23T07:11:33.076Z,4.65
2022-11-23T07:16:38.810Z,4.68
2022-11-23T07:21:45.741Z,4.66
2022-11-23T07:26:52.151Z,4.66
2022-11-23T07:31:57.860Z,4.72
2022-11-23T07:37:04.734Z,4.78
2022-11-23T07:42:31.770Z,4.73
2022-11-23T07:47:18.284Z,4.73
2022-11-23T07:52:23.891Z,4.78
2022-11-23T07:57:29.854Z,5.13
2022-11-23T08:02:35.346Z,5.60
2022-11-23T08:07:40.912Z,5.45
2022-11-23T08:12:46.465Z,5.41
2022-11-23T08:17:58.495Z,5.36
2022-11-23T08:23:03.908Z,5.36
2022-11-23T08:28:09.546Z,5.48
2022-11-23T08:33:15.950Z,5.61
2022-11-23T08:38:21.351Z,5.61
2022-11-23T08:43:27.078Z,5.74
2022-11-23T08:48:32.566Z,5.86
2022-11-23T08:53:38.378Z,5.82
2022-11-23T08:58:43.893Z,5.74
2022-11-23T09:03:49.295Z,5.74
2022-11-23T09:08:54.748Z,5.68
2022-11-23T09:14:00.466Z,5.58
2022-11-23T09:19:07.413Z,5.62
2022-11-23T09:24:13.706Z,5.71
2022-11-23T09:29:19.125Z,5.69
2022-11-23T09:34:27.021Z,5.66
2022-11-23T09:39:32.447Z,5.68
2022-11-23T09:44:51.190Z,5.73
2022-11-23T09:50:11.587Z,5.77
2022-11-23T09:55:44.176Z,5.76
2022-11-23T10:00:52.599Z,5.77
2022-11-23T10:06:09.944Z,5.78
2022-11-23T10:11:40.751Z,5.75
2022-11-23T10:16:49.221Z,5.93
2022-11-23T10:22:15.555Z,6.11
2022-11-23T10:27:24.014Z,6.15
2022-11-23T10:32:38.436Z,6.11
2022-11-23T10:37:44.273Z,6.22
2022-11-23T10:42:58.677Z,6.42
2022-11-23T10:48:04.157Z,6.60
2022-11-23T10:53:22.440Z,6.72
2022-11-23T10:58:31.481Z,6.70
2022-11-23T11:03:36.879Z,6.67
2022-11-23T11:08:54.653Z,6.52
2022-11-23T11:14:09.196Z,6.68
2022-11-23T11:19:32.181Z,6.76
2022-11-23T11:24:47.722Z,6.77
2022-11-23T11:30:00.032Z,6.94
2022-11-23T11:35:29.817Z,7.06
2022-11-23T11:40:47.340Z,7.15
2022-11-23T11:46:27.378Z,7.02
2022-11-23T11:51:30.667Z,6.99
2022-11-23T11:56:47.276Z,7.16
2022-11-23T12:01:55.926Z,7.33
2022-11-23T12:07:07.033Z,7.25
2022-11-23T12:12:15.934Z,7.14
2022-11-23T12:17:33.853Z,7.19
2022-11-23T12:23:00.658Z,6.97
2022-11-23T12:28:25.394Z,6.99
2022-11-23T12:33:45.772Z,6.78
2022-11-23T12:39:02.810Z,6.65
2022-11-23T12:44:26.573Z,6.53
2022-11-23T12:49:46.933Z,6.41
2022-11-23T12:55:15.091Z,6.33
2022-11-23T13:00:24.243Z,6.27
2022-11-23T13:05:58.322Z,6.23
2022-11-23T13:11:18.669Z,6.34
2022-11-23T13:16:27.240Z,6.20
2022-11-23T13:21:45.060Z,6.10
2022-11-23T13:27:10.105Z,6.15
2022-11-23T13:32:43.181Z,6.25
2022-11-23T13:38:00.929Z,6.35
2022-11-23T13:43:31.393Z,6.30
2022-11-23T13:48:57.172Z,6.37
2022-11-23T13:54:04.445Z,6.40
2022-11-23T13:59:25.433Z,6.41
2022-11-23T14:04:34.082Z,6.18
2022-11-23T14:10:05.315Z,6.18
2022-11-23T14:15:25.756Z,6.18
2022-11-23T14:21:01.886Z,6.11
2022-11-23T14:26:35.982Z,6.20
2022-11-23T14:31:59.680Z,6.31
2022-11-23T14:37:31.203Z,6.31
2022-11-23T14:42:39.641Z,6.19
2022-11-23T14:47:45.027Z,6.12
2022-11-23T14:52:52.575Z,6.10
2022-11-23T14:58:03.593Z,6.13
2022-11-23T15:03:49.249Z,6.28
2022-11-23T15:08:33.687Z,6.34
2022-11-23T15:13:48.070Z,6.31
2022-11-23T15:18:53.469Z,6.29
2022-11-23T15:24:00.542Z,6.30
2022-11-23T15:29:06.062Z,6.33
2022-11-23T15:34:17.484Z,6.37
2022-11-23T15:39:24.506Z,6.28
2022-11-23T15:44:33.447Z,6.08
2022-11-23T15:49:40.508Z,5.97
2022-11-23T15:54:46.850Z,5.97
2022-11-23T15:59:58.103Z,5.92
2022-11-23T16:05:25.475Z,5.87
2022-11-23T16:10:35.093Z,5.89
2022-11-23T16:15:43.699Z,5.91
2022-11-23T16:20:54.794Z,5.80
2022-11-23T16:26:06.201Z,5.78
2022-11-23T16:31:20.369Z,5.88
2022-11-23T16:36:30.180Z,5.87
2022-11-23T16:41:36.500Z,5.88
2022-11-23T16:46:43.942Z,5.90
2022-11-23T16:51:57.166Z,5.87
2022-11-23T16:57:02.090Z,5.85
2022-11-23T17:02:10.564Z,5.90
2022-11-23T17:07:17.066Z,5.81
2022-11-23T17:12:22.706Z,5.81
2022-11-23T17:17:30.043Z,5.79
2022-11-23T17:22:35.431Z,5.74
2022-11-23T17:27:43.912Z,5.70
2022-11-23T17:32:50.228Z,5.80
2022-11-23T17:37:56.043Z,5.81
2022-11-23T17:43:01.518Z,5.84
2022-11-23T17:48:07.240Z,5.85
2022-11-23T17:53:12.650Z,5.74
2022-11-23T17:58:18.133Z,5.71
2022-11-23T18:03:23.680Z,5.85
2022-11-23T18:08:29.053Z,5.78
2022-11-23T18:13:34.474Z,5.77
2022-11-23T18:18:40.505Z,5.70
2022-11-23T18:23:46.362Z,5.68
2022-11-23T18:28:52.492Z,5.68
2022-11-23T18:33:57.891Z,5.63
2022-11-23T18:39:03.685Z,5.56
2022-11-23T18:44:09.093Z,5.48
2022-11-23T18:49:14.513Z,5.44
2022-11-23T18:54:19.973Z,5.49
2022-11-23T18:59:56.207Z,5.57
2022-11-23T19:04:34.424Z,5.56
2022-11-23T19:09:39.901Z,5.52
2022-11-23T19:14:46.947Z,5.39
2022-11-23T19:19:52.358Z,5.39
2022-11-23T19:24:57.968Z,5.33
2022-11-23T19:30:09.249Z,5.29
2022-11-23T19:35:15.239Z,5.29
2022-11-23T19:40:20.728Z,5.26
2022-11-23T19:45:26.131Z,5.21
2022-11-23T19:50:31.542Z,5.32
2022-11-23T19:55:37.731Z,5.39
2022-11-23T20:00:47.203Z,5.39
2022-11-23T20:06:00.273Z,5.38
2022-11-23T20:11:13.916Z,5.37
2022-11-23T20:16:21.341Z,5.25
2022-11-23T20:21:28.279Z,5.18
2022-11-23T20:26:36.221Z,5.18
2022-11-23T20:31:41.944Z,5.21
2022-11-23T20:36:47.593Z,5.41
2022-11-23T20:41:53.172Z,5.44
2022-11-23T20:47:02.948Z,5.53
2022-11-23T20:52:06.239Z,5.53
2022-11-23T20:57:11.694Z,5.60
2022-11-23T21:02:17.493Z,5.57
2022-11-23T21:07:23.231Z,5.59
2022-11-23T21:12:50.474Z,5.53
2022-11-23T21:17:54.193Z,5.45
2022-11-23T21:22:59.606Z,5.44
2022-11-23T21:28:05.202Z,5.55
2022-11-23T21:33:11.314Z,5.55
2022-11-23T21:38:16.732Z,5.55
2022-11-23T21:43:22.150Z,5.65
2022-11-23T21:48:28.021Z,5.73
2022-11-23T21:53:34.555Z,5.77
2022-11-23T21:58:41.238Z,5.71
2022-11-23T22:03:52.966Z,5.72
2022-11-23T22:09:01.364Z,5.67
2022-11-23T22:14:12.470Z,5.65
2022-11-23T22:19:19.100Z,5.65
2022-11-23T22:24:24.702Z,5.77
2022-11-23T22:29:30.239Z,5.71
2022-11-23T22:34:36.066Z,5.86
2022-11-23T22:39:41.744Z,5.77
2022-11-23T22:44:47.200Z,5.85
2022-11-23T22:49:52.735Z,5.90
2022-11-23T22:54:58.187Z,5.93
2022-11-23T23:00:03.708Z,5.98
2022-11-23T23:05:09.877Z,6.10
2022-11-23T23:10:15.411Z,6.18
2022-11-23T23:15:21.366Z,6.28
2022-11-23T23:20:26.904Z,6.29
2022-11-23T23:25:33.281Z,6.24
2022-11-23T23:30:38.757Z,6.21
2022-11-23T23:35:44.843Z,6.28
2022-11-23T23:40:50.311Z,6.23
2022-11-23T23:46:01.361Z,6.13
2022-11-23T23:51:08.837Z,6.11
2022-11-23T23:56:17.447Z,6.06
